Terminal Aerodrome Forecast
Issued by NWS Grand Junction, CO

Home | Current Version | Previous Version | Text Only | Print | Product List | Glossary On
Versions: 1 2 3 4 5 6 7 8 9 10 11 12 13 14 15 16 17 18 19 20 21 22 23 24 25 26 27 28 29 30 31 32 33 34 35 36
000
FTUS45 KGJT 300126 AAB
TAFGJT
TAF AMD
KGJT 300126Z 3001/3024 14015KT P6SM SCT070 BKN140
     FM300300 09009KT P6SM SCT140
     FM301800 16004KT P6SM FEW140
     FM302000 23004KT P6SM FEW070 SCT140=

USA.gov is the U.S. government's official web portal to all federal, state and local government web resources and services.